Time;durP1;ratioP1;P1;durP2;ratioP2;P2;SDS_P1;SDS_P2;PMS_P1;PMS_P2;Temp;Humidity;BMP_temperature;BMP_pressure;BME280_temperature;BME280_humidity;BME280_pressure;Samples;Min_cycle;Max_cycle;Signal;HPM_P1;HPM_P2
2023/02/25 00:02:12;;;;;;;9.07;1.13;;;4.20;99.90;;;;;;4933200;28;20028;-64
2023/02/25 00:04:40;;;;;;;7.03;0.70;;;4.10;99.90;;;;;;4950300;28;20035;-65
2023/02/25 00:07:07;;;;;;;0.85;0.63;;;3.80;99.90;;;;;;4950707;28;20061;-65
2023/02/25 00:09:33;;;;;;;7.65;0.90;;;3.80;99.90;;;;;;4952563;28;20047;-65
2023/02/25 00:11:59;;;;;;;5.77;0.80;;;3.80;99.90;;;;;;4952161;28;21730;-66
2023/02/25 00:14:26;;;;;;;2.08;0.77;;;3.70;99.90;;;;;;4951590;28;20082;-66
2023/02/25 00:16:54;;;;;;;16.98;0.80;;;3.70;99.90;;;;;;4952493;28;20111;-66
2023/02/25 00:19:22;;;;;;;6.85;1.20;;;3.60;99.90;;;;;;4952844;28;21022;-68
2023/02/25 00:21:47;;;;;;;6.80;1.38;;;3.60;99.90;;;;;;4934591;28;20427;-66
2023/02/25 00:24:14;;;;;;;15.63;2.10;;;3.50;99.90;;;;;;4951343;28;20029;-66
2023/02/25 00:26:40;;;;;;;12.13;1.50;;;3.40;99.90;;;;;;4952229;28;20051;-66
2023/02/25 00:29:06;;;;;;;7.93;1.17;;;3.30;99.90;;;;;;4953005;28;20029;-66
2023/02/25 00:31:32;;;;;;;13.63;1.50;;;3.20;99.90;;;;;;4951441;28;20261;-66
2023/02/25 00:33:58;;;;;;;5.35;1.63;;;3.20;99.90;;;;;;4955159;28;20113;-66
2023/02/25 00:36:26;;;;;;;5.35;0.65;;;3.20;99.90;;;;;;4955416;28;20034;-65
2023/02/25 00:38:54;;;;;;;5.78;1.17;;;3.20;99.90;;;;;;4954031;28;23765;-66
2023/02/25 00:41:26;;;;;;;18.02;1.92;;;3.30;99.90;;;;;;4951980;28;20082;-66
2023/02/25 00:43:55;;;;;;;7.28;1.35;;;3.40;99.90;;;;;;4955038;28;20369;-66
2023/02/25 00:46:21;;;;;;;5.32;1.15;;;3.50;99.90;;;;;;4950988;28;20098;-66
2023/02/25 00:48:47;;;;;;;21.25;2.33;;;3.60;99.90;;;;;;4951050;28;20912;-66
2023/02/25 00:51:16;;;;;;;15.43;2.57;;;3.60;99.90;;;;;;4953439;28;20055;-66
2023/02/25 00:53:43;;;;;;;13.15;1.33;;;3.70;99.90;;;;;;4934514;28;20021;-66
2023/02/25 00:56:13;;;;;;;8.55;1.55;;;3.70;99.90;;;;;;4953622;28;20016;-67
2023/02/25 00:58:39;;;;;;;8.25;2.08;;;3.70;99.90;;;;;;4953358;28;20053;-65
2023/02/25 01:01:14;;;;;;;21.53;3.03;;;3.80;99.90;;;;;;4953374;28;20028;-66
2023/02/25 01:03:40;;;;;;;11.70;1.98;;;3.80;99.90;;;;;;4952687;28;20139;-66
2023/02/25 01:06:09;;;;;;;5.23;1.53;;;3.90;99.90;;;;;;4952111;28;20029;-66
2023/02/25 01:08:35;;;;;;;10.95;2.08;;;4.00;99.90;;;;;;4951196;28;20029;-66
2023/02/25 01:11:20;;;;;;;7.82;1.45;;;4.10;99.90;;;;;;4951709;28;20035;-66
2023/02/25 01:13:48;;;;;;;12.80;1.88;;;4.10;99.90;;;;;;4951571;28;20028;-66
2023/02/25 01:16:16;;;;;;;18.05;2.05;;;4.20;99.90;;;;;;4950351;28;20078;-67
2023/02/25 01:18:43;;;;;;;6.90;1.90;;;4.30;99.90;;;;;;4950183;28;20562;-68
2023/02/25 01:21:25;;;;;;;6.15;1.58;;;4.30;99.90;;;;;;4954063;28;20665;-66
2023/02/25 01:23:59;;;;;;;14.98;2.00;;;4.40;99.90;;;;;;4951228;28;20035;-66
2023/02/25 01:26:31;;;;;;;9.02;2.28;;;4.40;99.90;;;;;;4950760;28;20991;-66
2023/02/25 01:28:58;;;;;;;14.85;2.58;;;4.50;99.90;;;;;;4934636;28;20045;-66
2023/02/25 01:31:28;;;;;;;12.57;3.40;;;4.50;99.90;;;;;;4951988;28;20808;-65
2023/02/25 01:33:58;;;;;;;19.02;2.08;;;4.60;99.90;;;;;;4950632;28;20071;-66
2023/02/25 01:36:24;;;;;;;19.95;2.65;;;4.60;99.90;;;;;;4950528;28;20249;-66
2023/02/25 01:38:50;;;;;;;9.68;1.45;;;4.60;99.90;;;;;;4951290;28;20052;-65
2023/02/25 01:41:16;;;;;;;16.50;2.13;;;4.50;99.90;;;;;;4951372;28;20037;-65
2023/02/25 01:43:42;;;;;;;5.88;1.45;;;4.40;99.90;;;;;;4954035;28;20033;-66
2023/02/25 01:46:08;;;;;;;8.10;1.57;;;4.30;99.90;;;;;;4951097;28;20109;-66
2023/02/25 01:48:39;;;;;;;10.03;2.10;;;4.30;99.90;;;;;;4952624;28;20028;-66
2023/02/25 01:51:11;;;;;;;3.85;1.17;;;4.30;99.90;;;;;;4936159;28;20029;-65
2023/02/25 01:53:45;;;;;;;6.65;1.45;;;4.40;99.90;;;;;;4952221;28;20029;-65
2023/02/25 01:56:16;;;;;;;9.88;1.10;;;4.50;99.90;;;;;;4953006;28;20071;-65
2023/02/25 01:58:42;;;;;;;19.73;3.15;;;4.50;99.90;;;;;;4952433;28;20123;-66
2023/02/25 02:01:13;;;;;;;13.95;1.98;;;4.40;99.90;;;;;;4951824;28;20326;-66
2023/02/25 02:03:39;;;;;;;15.50;2.35;;;4.40;99.90;;;;;;4951820;28;20032;-67
2023/02/25 02:06:13;;;;;;;15.02;2.35;;;4.30;99.90;;;;;;4942777;28;20024;-67
2023/02/25 02:08:41;;;;;;;10.68;1.35;;;4.20;99.90;;;;;;4951704;28;20029;-67
2023/02/25 02:11:07;;;;;;;17.40;2.10;;;4.20;99.90;;;;;;4953163;28;20017;-67
2023/02/25 02:13:36;;;;;;;6.15;1.70;;;4.10;99.90;;;;;;4951563;28;20029;-66
2023/02/25 02:16:16;;;;;;;14.63;2.22;;;4.10;99.90;;;;;;4953603;28;20071;-67
2023/02/25 02:18:53;;;;;;;14.02;2.05;;;3.90;99.90;;;;;;4951956;28;20044;-66
2023/02/25 02:21:34;;;;;;;10.38;2.50;;;3.90;99.90;;;;;;4952276;28;20017;-67
2023/02/25 02:24:27;;;;;;;13.25;1.80;;;3.90;99.90;;;;;;4951748;28;20630;-66
2023/02/25 02:27:01;;;;;;;13.75;1.50;;;3.90;99.90;;;;;;4951781;28;20130;-66
2023/02/25 02:29:45;;;;;;;8.85;0.80;;;4.00;99.90;;;;;;4957134;28;21573;-67
2023/02/25 02:32:11;;;;;;;19.05;2.10;;;4.20;99.90;;;;;;4952207;28;20087;-66
2023/02/25 02:35:06;;;;;;;6.23;1.10;;;4.20;99.90;;;;;;4955230;28;21251;-66
2023/02/25 02:37:50;;;;;;;13.68;2.40;;;4.30;99.90;;;;;;4931695;28;20065;-66
2023/02/25 02:40:29;;;;;;;20.63;2.25;;;4.30;99.90;;;;;;4952573;28;20026;-66
2023/02/25 02:43:06;;;;;;;11.52;1.70;;;4.30;99.90;;;;;;4951405;28;20024;-66
2023/02/25 02:46:01;;;;;;;11.38;1.38;;;4.40;99.90;;;;;;4953868;28;20036;-66
2023/02/25 02:48:43;;;;;;;12.63;2.03;;;4.40;99.90;;;;;;4951113;28;20040;-65
2023/02/25 02:51:25;;;;;;;1.75;0.85;;;4.40;99.90;;;;;;4951882;28;20262;-66
2023/02/25 02:53:58;;;;;;;10.43;1.70;;;4.50;99.90;;;;;;4953460;28;21388;-66
2023/02/25 02:56:27;;;;;;;14.13;2.50;;;4.40;99.90;;;;;;4951960;28;20021;-65
2023/02/25 02:59:04;;;;;;;9.75;1.85;;;4.40;99.90;;;;;;4953358;28;20029;-65
2023/02/25 03:01:37;;;;;;;2.47;1.23;;;4.40;99.90;;;;;;4953188;28;20026;-66
2023/02/25 03:04:08;;;;;;;27.23;3.70;;;4.50;99.90;;;;;;4952498;28;20622;-65
2023/02/25 03:06:42;;;;;;;2.17;1.10;;;4.40;99.90;;;;;;4953108;28;21019;-66
2023/02/25 03:09:13;;;;;;;11.52;2.63;;;4.40;99.90;;;;;;4932989;28;20025;-66
2023/02/25 03:11:40;;;;;;;21.75;2.92;;;4.40;99.90;;;;;;4953999;28;20167;-66
2023/02/25 03:14:07;;;;;;;12.60;1.98;;;4.30;99.90;;;;;;4959609;28;20043;-66
2023/02/25 03:16:35;;;;;;;;;;;4.20;99.90;;;;;;4955322;28;20029;-66
2023/02/25 03:19:12;;;;;;;13.27;1.92;;;4.10;99.90;;;;;;4954664;28;20665;-66
2023/02/25 03:21:42;;;;;;;20.65;2.50;;;4.00;99.90;;;;;;4956698;28;20139;-67
2023/02/25 03:24:16;;;;;;;5.85;1.90;;;3.80;99.90;;;;;;4957672;28;20024;-66
2023/02/25 03:26:42;;;;;;;7.45;1.08;;;3.70;99.90;;;;;;4956806;28;20920;-67
2023/02/25 03:29:15;;;;;;;10.80;1.63;;;3.70;99.90;;;;;;4958345;28;20017;-66
2023/02/25 03:31:57;;;;;;;18.33;1.70;;;3.60;99.90;;;;;;4958043;28;20072;-66
2023/02/25 03:34:40;;;;;;;19.00;1.90;;;3.70;99.90;;;;;;4960489;28;20039;-66
2023/02/25 03:37:15;;;;;;;18.08;1.88;;;3.60;99.90;;;;;;4958460;28;20107;-66
2023/02/25 03:39:45;;;;;;;6.32;1.83;;;3.60;99.90;;;;;;4955307;28;20020;-65
2023/02/25 03:42:15;;;;;;;14.73;2.85;;;3.60;99.90;;;;;;4956070;28;20021;-66
2023/02/25 03:44:50;;;;;;;18.75;2.13;;;3.60;99.90;;;;;;4958073;28;20028;-67
2023/02/25 03:47:18;;;;;;;16.88;1.77;;;3.70;99.90;;;;;;4955344;28;21184;-66
2023/02/25 03:50:01;;;;;;;12.40;1.23;;;3.80;99.90;;;;;;4955562;28;24326;-66
2023/02/25 03:52:28;;;;;;;12.30;2.92;;;3.90;99.90;;;;;;4956101;28;20025;-67
2023/02/25 03:54:56;;;;;;;8.10;1.95;;;4.00;99.90;;;;;;4939082;28;20021;-66
2023/02/25 03:57:26;;;;;;;10.50;1.35;;;4.20;99.90;;;;;;4954890;28;20162;-66
2023/02/25 03:59:55;;;;;;;14.98;2.03;;;4.20;99.90;;;;;;4955832;28;20029;-66
2023/02/25 04:02:28;;;;;;;12.40;1.70;;;4.20;99.90;;;;;;4955423;28;20616;-66
2023/02/25 04:04:54;;;;;;;9.73;2.20;;;4.20;99.90;;;;;;4955402;28;20123;-66
2023/02/25 04:07:20;;;;;;;19.23;1.50;;;4.30;99.90;;;;;;4955566;28;20041;-67
2023/02/25 04:09:46;;;;;;;8.97;1.10;;;4.20;99.90;;;;;;4955313;28;20025;-66
2023/02/25 04:12:12;;;;;;;12.63;1.23;;;4.20;99.90;;;;;;4955242;28;20027;-66
2023/02/25 04:14:38;;;;;;;17.13;2.25;;;4.10;99.90;;;;;;4954805;28;20712;-66
2023/02/25 04:17:05;;;;;;;11.40;1.87;;;4.00;99.90;;;;;;4954759;28;20046;-67
2023/02/25 04:19:30;;;;;;;;;;;3.90;99.90;;;;;;4957006;28;20987;-66
2023/02/25 04:21:57;;;;;;;5.55;1.52;;;3.90;99.90;;;;;;4955044;28;20380;-66
2023/02/25 04:24:22;;;;;;;2.08;0.90;;;3.90;99.90;;;;;;4955576;28;20181;-65
2023/02/25 04:26:48;;;;;;;7.97;1.30;;;4.00;99.90;;;;;;4956715;28;20375;-66
2023/02/25 04:29:14;;;;;;;16.17;2.13;;;3.90;99.90;;;;;;4952401;28;21872;-67
2023/02/25 04:31:40;;;;;;;4.00;1.20;;;3.80;99.90;;;;;;4955325;28;21547;-66
2023/02/25 04:34:06;;;;;;;13.27;1.90;;;3.70;99.90;;;;;;4955968;28;20017;-67
2023/02/25 04:36:34;;;;;;;16.27;2.43;;;3.60;99.90;;;;;;4939877;28;20024;-66
2023/02/25 04:39:02;;;;;;;7.88;1.38;;;3.50;99.90;;;;;;4953470;28;20081;-66
2023/02/25 04:41:33;;;;;;;18.27;2.70;;;3.50;99.90;;;;;;4955145;28;23416;-66
2023/02/25 04:43:59;;;;;;;15.32;2.15;;;3.40;99.90;;;;;;4955803;28;20025;-66
2023/02/25 04:46:25;;;;;;;22.33;2.22;;;3.40;99.90;;;;;;4957353;28;21332;-66
2023/02/25 04:48:51;;;;;;;11.43;1.52;;;3.40;99.90;;;;;;4956934;28;20043;-66
2023/02/25 04:51:17;;;;;;;14.60;2.17;;;3.40;99.90;;;;;;4955531;28;20434;-66
2023/02/25 04:53:45;;;;;;;7.20;1.50;;;3.40;99.90;;;;;;4954453;28;20435;-66
2023/02/25 04:56:11;;;;;;;8.93;1.50;;;3.50;99.90;;;;;;4953397;28;20028;-66
2023/02/25 04:58:38;;;;;;;28.33;2.00;;;3.50;99.90;;;;;;4954910;28;20032;-66
2023/02/25 05:01:05;;;;;;;;;;;3.60;99.90;;;;;;4954013;28;20115;-66
2023/02/25 05:03:32;;;;;;;17.27;2.78;;;3.70;99.90;;;;;;4953232;28;19939;-66
2023/02/25 05:05:58;;;;;;;;;;;3.80;99.90;;;;;;4956464;28;20426;-65
2023/02/25 05:08:24;;;;;;;6.90;1.70;;;3.80;99.90;;;;;;4953203;28;19970;-66
2023/02/25 05:10:50;;;;;;;12.23;1.80;;;3.80;99.90;;;;;;4936024;28;20028;-66
2023/02/25 05:13:17;;;;;;;10.35;1.05;;;3.90;99.90;;;;;;4952612;28;20033;-67
2023/02/25 05:15:43;;;;;;;;;;;3.90;99.90;;;;;;4954365;28;21225;-66
2023/02/25 05:18:09;;;;;;;9.20;1.57;;;3.90;99.90;;;;;;4919650;28;19920;-67
2023/02/25 05:20:45;;;;;;;7.95;1.38;;;3.80;99.90;;;;;;4953302;28;20273;-66
2023/02/25 05:23:11;;;;;;;14.80;1.80;;;3.80;99.90;;;;;;4952863;28;21319;-66
2023/02/25 05:25:40;;;;;;;20.02;1.80;;;3.90;99.90;;;;;;4953322;28;20645;-65
2023/02/25 05:28:15;;;;;;;20.42;2.00;;;3.80;99.90;;;;;;4935339;28;21676;-67
2023/02/25 05:30:41;;;;;;;19.73;1.77;;;3.70;99.90;;;;;;4951404;28;20024;-66
2023/02/25 05:33:08;;;;;;;18.67;1.30;;;3.70;99.90;;;;;;4952050;28;20104;-65
2023/02/25 05:35:34;;;;;;;11.43;1.90;;;3.70;99.90;;;;;;4952210;28;20045;-66
2023/02/25 05:38:00;;;;;;;14.85;1.52;;;3.70;99.90;;;;;;4934027;28;20457;-65
2023/02/25 05:40:26;;;;;;;10.98;1.55;;;3.60;99.90;;;;;;4951102;28;20094;-66
2023/02/25 05:42:52;;;;;;;9.50;1.88;;;3.60;99.90;;;;;;4953985;28;20025;-66
2023/02/25 05:45:18;;;;;;;14.83;1.67;;;3.60;99.90;;;;;;4954673;28;20053;-65
2023/02/25 05:47:44;;;;;;;16.77;2.67;;;3.60;99.90;;;;;;4954259;28;20024;-66
2023/02/25 05:50:10;;;;;;;12.03;2.10;;;3.50;99.90;;;;;;4954956;28;20025;-66
2023/02/25 05:52:36;;;;;;;15.35;1.85;;;3.40;99.90;;;;;;4937069;28;20023;-67
2023/02/25 05:55:03;;;;;;;24.40;2.83;;;3.40;99.90;;;;;;4953783;28;20025;-66
2023/02/25 05:57:29;;;;;;;11.95;1.58;;;3.40;99.90;;;;;;4955604;28;20090;-66
2023/02/25 05:59:55;;;;;;;14.53;2.53;;;3.30;99.90;;;;;;4952343;28;21344;-66
2023/02/25 06:02:21;;;;;;;21.20;2.37;;;3.40;99.90;;;;;;4957960;28;20021;-66
2023/02/25 06:04:47;;;;;;;12.33;1.50;;;3.40;99.90;;;;;;4955400;28;20035;-66
2023/02/25 06:07:13;;;;;;;5.80;1.27;;;3.40;99.90;;;;;;4951125;28;20305;-66
2023/02/25 06:09:39;;;;;;;23.35;2.22;;;3.40;99.90;;;;;;4952922;28;20166;-66
2023/02/25 06:12:05;;;;;;;5.53;1.30;;;3.40;99.90;;;;;;4950552;28;20335;-66
2023/02/25 06:14:32;;;;;;;8.88;1.80;;;3.30;99.90;;;;;;4950775;28;20465;-66
2023/02/25 06:16:58;;;;;;;13.98;2.40;;;3.20;99.90;;;;;;4952787;28;20033;-66
2023/02/25 06:19:28;;;;;;;12.47;1.73;;;3.20;99.90;;;;;;4952342;28;20028;-66
2023/02/25 06:21:54;;;;;;;9.68;2.08;;;3.10;99.90;;;;;;4952099;28;20029;-66
2023/02/25 06:24:24;;;;;;;10.98;2.00;;;3.10;99.90;;;;;;4950608;28;20086;-66
2023/02/25 06:26:50;;;;;;;15.70;1.85;;;3.00;99.90;;;;;;4952185;28;20184;-66
2023/02/25 06:29:16;;;;;;;11.87;1.70;;;3.00;99.90;;;;;;4953238;28;20119;-66
2023/02/25 06:31:42;;;;;;;14.33;1.80;;;3.00;99.90;;;;;;4953617;28;20031;-66
2023/02/25 06:34:08;;;;;;;8.10;1.93;;;3.00;99.90;;;;;;4936342;28;20021;-66
2023/02/25 06:36:33;;;;;;;11.60;2.17;;;3.00;99.90;;;;;;4953631;28;20268;-65
2023/02/25 06:39:00;;;;;;;22.17;1.93;;;3.00;99.90;;;;;;4952196;28;20783;-66
2023/02/25 06:41:26;;;;;;;3.83;1.13;;;3.00;99.90;;;;;;4953820;28;21109;-66
2023/02/25 06:43:52;;;;;;;8.05;1.75;;;3.00;99.90;;;;;;4953698;28;20257;-65
2023/02/25 06:46:21;;;;;;;19.90;2.00;;;3.20;99.90;;;;;;4953280;28;20352;-68
2023/02/25 06:48:47;;;;;;;14.40;1.50;;;3.30;99.90;;;;;;4956769;28;20029;-66
2023/02/25 06:51:13;;;;;;;12.93;1.33;;;3.30;99.90;;;;;;4941348;28;20086;-66
2023/02/25 06:53:41;;;;;;;10.23;1.75;;;3.40;99.90;;;;;;4958930;28;20059;-66
2023/02/25 06:56:09;;;;;;;15.05;1.88;;;3.50;99.90;;;;;;4958731;28;20036;-66
2023/02/25 06:58:36;;;;;;;22.40;2.28;;;3.50;99.90;;;;;;4959646;28;20069;-65
2023/02/25 07:01:06;;;;;;;17.85;1.75;;;3.50;99.90;;;;;;4961479;28;20043;-65
2023/02/25 07:03:32;;;;;;;16.00;2.10;;;3.60;99.90;;;;;;4959199;28;20074;-66
2023/02/25 07:05:58;;;;;;;10.13;2.50;;;3.50;99.90;;;;;;4957574;28;24044;-65
2023/02/25 07:08:24;;;;;;;10.37;1.87;;;3.50;99.90;;;;;;4942770;28;20043;-66
2023/02/25 07:10:50;;;;;;;10.43;1.33;;;3.60;99.90;;;;;;4959011;28;20475;-65
2023/02/25 07:13:16;;;;;;;7.43;2.20;;;3.50;99.90;;;;;;4959066;28;20040;-66
2023/02/25 07:15:42;;;;;;;4.75;1.40;;;3.50;99.90;;;;;;4955419;28;20023;-66
2023/02/25 07:18:08;;;;;;;15.43;2.80;;;3.50;99.90;;;;;;4957768;28;20057;-65
2023/02/25 07:20:34;;;;;;;24.13;3.00;;;3.60;99.90;;;;;;4958008;28;20287;-66
2023/02/25 07:23:03;;;;;;;7.83;1.20;;;3.50;99.90;;;;;;4958165;28;20032;-66
2023/02/25 07:25:29;;;;;;;12.57;2.10;;;3.60;99.90;;;;;;4959564;28;20035;-66
2023/02/25 07:27:55;;;;;;;9.10;2.20;;;3.60;99.90;;;;;;4957864;28;20049;-65
2023/02/25 07:30:21;;;;;;;11.17;2.13;;;3.60;99.90;;;;;;4960549;28;20082;-66
2023/02/25 07:32:47;;;;;;;10.13;1.87;;;3.70;99.90;;;;;;4959213;28;20873;-65
2023/02/25 07:35:14;;;;;;;12.57;1.95;;;3.70;99.90;;;;;;4942186;28;20044;-66
2023/02/25 07:37:40;;;;;;;11.63;2.00;;;3.80;99.90;;;;;;4959401;28;20050;-66
2023/02/25 07:40:15;;;;;;;15.93;2.08;;;3.90;99.90;;;;;;4961191;28;20567;-66
2023/02/25 07:42:42;;;;;;;15.88;1.65;;;4.00;99.90;;;;;;4943697;28;20072;-65
2023/02/25 07:45:09;;;;;;;4.93;1.75;;;4.00;99.90;;;;;;4956613;28;20032;-66
2023/02/25 07:47:35;;;;;;;2.72;0.82;;;4.00;99.90;;;;;;4959489;28;20103;-66
2023/02/25 07:50:02;;;;;;;13.43;2.00;;;4.00;99.90;;;;;;4959074;28;20021;-74
2023/02/25 07:52:28;;;;;;;;;;;4.00;99.90;;;;;;4955971;28;20164;-66
2023/02/25 07:54:54;;;;;;;7.37;1.23;;;4.10;99.90;;;;;;4958487;28;19913;-66
2023/02/25 07:57:20;;;;;;;3.92;0.85;;;4.00;99.90;;;;;;4939588;28;20703;-65
2023/02/25 07:59:46;;;;;;;3.57;0.87;;;3.90;99.90;;;;;;4953219;28;20115;-65
2023/02/25 08:02:13;;;;;;;3.38;1.05;;;4.00;99.90;;;;;;4955559;28;23634;-66
2023/02/25 08:04:39;;;;;;;4.65;1.20;;;4.00;99.90;;;;;;4955175;28;20021;-66
2023/02/25 08:07:05;;;;;;;4.37;0.47;;;4.10;99.90;;;;;;4954965;28;20136;-66
2023/02/25 08:09:31;;;;;;;1.05;0.90;;;4.20;99.90;;;;;;4953568;28;20264;-66
2023/02/25 08:11:57;;;;;;;2.53;1.23;;;4.20;99.90;;;;;;4956535;28;20032;-65
2023/02/25 08:14:23;;;;;;;0.33;0.33;;;3.50;99.90;;;;;;4953092;28;20639;-66
2023/02/25 08:16:49;;;;;;;0.30;0.30;;;3.20;99.90;;;;;;4948145;28;20352;-64
2023/02/25 08:19:15;;;;;;;0.57;0.20;;;3.30;99.90;;;;;;4946307;28;20032;-65
2023/02/25 08:21:41;;;;;;;0.00;0.00;;;3.50;99.90;;;;;;4946532;28;20025;-66
2023/02/25 08:24:07;;;;;;;1.33;0.47;;;3.70;99.90;;;;;;4945967;28;20021;-65
2023/02/25 08:26:34;;;;;;;1.08;0.40;;;3.80;99.90;;;;;;4947588;28;20159;-65
2023/02/25 08:29:00;;;;;;;1.45;0.50;;;4.00;99.90;;;;;;4948839;28;20826;-65
2023/02/25 08:31:26;;;;;;;1.10;0.30;;;4.10;99.90;;;;;;4946933;28;20044;-65
2023/02/25 08:33:52;;;;;;;2.27;0.93;;;4.20;99.90;;;;;;4929659;28;21254;-65
2023/02/25 08:36:22;;;;;;;0.43;0.40;;;4.30;99.90;;;;;;4947788;28;20121;-65
2023/02/25 08:38:49;;;;;;;2.00;0.32;;;4.20;99.90;;;;;;4946856;28;20028;-64
2023/02/25 08:41:15;;;;;;;0.10;0.10;;;4.20;99.90;;;;;;4946055;28;20024;-65
2023/02/25 08:43:41;;;;;;;2.55;0.57;;;4.30;99.90;;;;;;4946860;28;20031;-65
2023/02/25 08:46:07;;;;;;;4.30;1.50;;;4.30;99.90;;;;;;4948564;28;21665;-65
2023/02/25 08:48:34;;;;;;;1.15;0.65;;;4.30;99.90;;;;;;4930458;28;20036;-65
2023/02/25 08:51:08;;;;;;;4.28;0.88;;;4.30;99.90;;;;;;4947628;28;20133;-65
2023/02/25 08:53:37;;;;;;;4.95;1.05;;;4.30;99.90;;;;;;4945741;28;20128;-64
2023/02/25 08:56:04;;;;;;;0.35;0.35;;;4.40;99.90;;;;;;4974709;28;20109;-65
2023/02/25 08:58:31;;;;;;;3.17;1.17;;;4.50;99.90;;;;;;5050860;28;20052;-65
2023/02/25 09:00:57;;;;;;;0.65;0.10;;;4.50;99.90;;;;;;5035001;28;20119;-65
2023/02/25 09:03:23;;;;;;;1.13;0.53;;;4.50;99.90;;;;;;5045730;28;20159;-66
2023/02/25 09:05:54;;;;;;;0.87;0.77;;;4.50;99.90;;;;;;5050141;28;20036;-65
2023/02/25 09:08:20;;;;;;;2.85;0.55;;;4.60;99.90;;;;;;5051212;28;20881;-64
2023/02/25 09:10:47;;;;;;;2.23;0.50;;;4.60;99.90;;;;;;5048778;28;20074;-64
2023/02/25 09:13:13;;;;;;;0.70;0.38;;;4.50;99.90;;;;;;5045914;28;20266;-65
2023/02/25 09:15:39;;;;;;;1.92;1.08;;;4.40;99.90;;;;;;5051297;28;20044;-65
2023/02/25 09:18:05;;;;;;;4.67;0.77;;;4.40;99.90;;;;;;5052821;28;20370;-65
2023/02/25 09:20:31;;;;;;;4.73;1.33;;;4.40;99.90;;;;;;5050771;28;20446;-65
2023/02/25 09:22:58;;;;;;;2.23;1.07;;;4.40;99.90;;;;;;5036579;28;20098;-75
2023/02/25 09:25:24;;;;;;;0.20;0.20;;;4.50;99.90;;;;;;5033799;28;20030;-65
2023/02/25 09:27:50;;;;;;;1.58;0.20;;;4.20;99.90;;;;;;4983063;28;20165;-64
2023/02/25 09:30:17;;;;;;;0.10;0.10;;;3.80;99.90;;;;;;4938743;28;20033;-64
2023/02/25 09:32:44;;;;;;;0.80;0.10;;;3.70;99.90;;;;;;4939649;28;20981;-64
2023/02/25 09:35:11;;;;;;;0.10;0.10;;;3.60;99.90;;;;;;4940132;28;20781;-64
2023/02/25 09:37:37;;;;;;;0.38;0.38;;;3.60;99.90;;;;;;4942178;28;20067;-64
2023/02/25 09:40:05;;;;;;;1.92;0.57;;;3.60;99.90;;;;;;4944431;28;23440;-65
2023/02/25 09:43:19;;;;;;;4.65;0.57;;;3.70;99.90;;;;;;4937415;28;20028;-64
2023/02/25 09:45:47;;;;;;;4.05;0.40;;;3.90;99.90;;;;;;4872934;28;20037;-65
2023/02/25 09:48:24;;;;;;;0.77;0.52;;;4.00;99.90;;;;;;4938205;28;20035;-65
2023/02/25 09:50:56;;;;;;;0.60;0.30;;;4.10;99.90;;;;;;4940304;28;20052;-65
2023/02/25 09:53:48;;;;;;;1.15;0.75;;;4.20;99.90;;;;;;4925032;28;20033;-66
2023/02/25 09:56:23;;;;;;;1.20;0.47;;;4.40;99.90;;;;;;4925161;28;20032;-65
2023/02/25 09:58:55;;;;;;;1.58;0.15;;;4.60;99.90;;;;;;4941637;28;20028;-65
2023/02/25 10:02:11;;;;;;;3.10;0.73;;;4.80;99.90;;;;;;4944908;28;23649;-65
2023/02/25 10:05:20;;;;;;;2.58;0.60;;;4.90;99.90;;;;;;4881995;28;20026;-65
2023/02/25 10:07:58;;;;;;;4.43;0.70;;;5.70;99.90;;;;;;4907371;28;20401;-71
2023/02/25 10:10:39;;;;;;;5.63;1.17;;;6.40;99.90;;;;;;4948934;28;20090;-65
2023/02/25 10:13:23;;;;;;;6.07;0.60;;;6.40;99.90;;;;;;4942495;28;20021;-66
2023/02/25 10:16:07;;;;;;;0.10;0.10;;;6.10;99.90;;;;;;4942938;28;23740;-65
2023/02/25 10:18:39;;;;;;;4.65;1.75;;;6.00;99.90;;;;;;4945638;28;20055;-64
2023/02/25 10:21:20;;;;;;;3.40;0.45;;;6.00;99.90;;;;;;4950075;28;20025;-65
2023/02/25 10:24:17;;;;;;;2.28;0.85;;;5.90;99.90;;;;;;4943925;28;20389;-64
2023/02/25 10:26:48;;;;;;;1.58;1.17;;;5.80;99.90;;;;;;4945369;28;20775;-65
2023/02/25 10:29:39;;;;;;;0.85;0.13;;;6.00;99.90;;;;;;4926121;28;20031;-65
2023/02/25 10:32:17;;;;;;;0.20;0.15;;;6.20;99.90;;;;;;4944294;28;20027;-66
2023/02/25 10:34:43;;;;;;;0.25;0.05;;;6.30;99.90;;;;;;4945387;28;20021;-67
2023/02/25 10:37:17;;;;;;;13.63;0.47;;;6.30;99.90;;;;;;4942255;28;20933;-65
2023/02/25 10:39:47;;;;;;;6.25;0.77;;;6.30;99.90;;;;;;4945154;28;20115;-66
2023/02/25 10:42:15;;;;;;;2.40;1.02;;;6.30;99.90;;;;;;4944701;28;21213;-66
2023/02/25 10:44:43;;;;;;;2.72;0.75;;;6.20;99.90;;;;;;4947214;28;20047;-66
2023/02/25 10:47:14;;;;;;;2.35;0.50;;;6.20;99.90;;;;;;4943235;28;20037;-65
2023/02/25 10:49:40;;;;;;;3.03;1.15;;;5.90;99.90;;;;;;4945643;28;20062;-65
2023/02/25 10:52:17;;;;;;;2.70;0.37;;;5.70;99.90;;;;;;4943668;28;20895;-65
2023/02/25 10:54:47;;;;;;;3.30;0.68;;;5.60;99.90;;;;;;4928545;28;20922;-65
2023/02/25 10:57:35;;;;;;;7.45;1.77;;;5.30;99.90;;;;;;4943627;28;20021;-65
2023/02/25 11:00:32;;;;;;;0.63;0.32;;;5.10;99.90;;;;;;4947412;28;20051;-65
2023/02/25 11:03:03;;;;;;;0.63;0.20;;;5.20;99.90;;;;;;4923685;28;20067;-64
2023/02/25 11:05:42;;;;;;;1.13;0.60;;;5.20;99.90;;;;;;4944890;28;20029;-65
2023/02/25 11:08:30;;;;;;;1.88;0.10;;;5.20;99.90;;;;;;4943722;28;20528;-65
2023/02/25 11:11:03;;;;;;;5.18;1.17;;;5.30;99.90;;;;;;4946021;28;21760;-65
2023/02/25 11:13:30;;;;;;;5.20;1.05;;;5.50;99.90;;;;;;4942013;28;20327;-65
2023/02/25 11:16:01;;;;;;;0.30;0.30;;;5.90;99.90;;;;;;4946649;28;20021;-66
2023/02/25 11:18:30;;;;;;;3.53;1.92;;;5.90;99.90;;;;;;4942573;28;20111;-65
2023/02/25 11:21:17;;;;;;;4.25;0.77;;;5.90;99.90;;;;;;4939882;28;20021;-65
2023/02/25 11:23:46;;;;;;;0.13;0.13;;;5.90;99.90;;;;;;4940199;28;20136;-65
2023/02/25 11:26:27;;;;;;;4.40;1.42;;;6.00;99.90;;;;;;4941022;28;20025;-65
2023/02/25 11:28:54;;;;;;;2.30;0.70;;;6.10;99.90;;;;;;4922517;28;20059;-66
2023/02/25 11:31:22;;;;;;;0.57;0.57;;;6.30;99.90;;;;;;4935725;28;20100;-65
2023/02/25 11:34:05;;;;;;;8.85;1.02;;;6.40;99.90;;;;;;4906955;28;20036;-65
2023/02/25 11:36:36;;;;;;;3.83;0.30;;;6.40;99.90;;;;;;4945549;28;20035;-66
2023/02/25 11:39:21;;;;;;;3.50;1.17;;;6.30;99.90;;;;;;4943326;28;20612;-65
2023/02/25 11:41:49;;;;;;;2.55;0.82;;;6.20;99.90;;;;;;4944527;28;20859;-65
2023/02/25 11:44:27;;;;;;;4.68;1.05;;;6.40;99.90;;;;;;4947491;28;21555;-65
2023/02/25 11:47:18;;;;;;;0.93;0.65;;;6.70;99.90;;;;;;4948566;28;20036;-65
2023/02/25 11:50:06;;;;;;;0.10;0.10;;;6.80;99.90;;;;;;4918730;28;20155;-65
2023/02/25 11:52:41;;;;;;;1.38;1.00;;;7.00;99.90;;;;;;4948630;28;24191;-65
2023/02/25 11:55:17;;;;;;;4.75;0.60;;;6.90;99.90;;;;;;4950011;28;20509;-67
2023/02/25 11:57:57;;;;;;;;;;;6.80;99.90;;;;;;4950243;28;20694;-65
2023/02/25 12:00:45;;;;;;;0.28;0.28;;;6.90;99.90;;;;;;4960025;28;20023;-65
2023/02/25 12:03:35;;;;;;;3.50;0.40;;;6.90;99.90;;;;;;5059571;28;20029;-65
2023/02/25 12:06:20;;;;;;;0.73;0.30;;;7.00;99.90;;;;;;5056043;28;20032;-66
2023/02/25 12:09:08;;;;;;;6.05;1.10;;;7.00;99.90;;;;;;5048596;28;20025;-64
2023/02/25 12:12:03;;;;;;;6.40;1.60;;;6.90;99.90;;;;;;5048627;28;20040;-66
2023/02/25 12:14:52;;;;;;;2.97;0.65;;;7.00;99.90;;;;;;5043155;28;20144;-65
2023/02/25 12:17:36;;;;;;;7.78;0.75;;;7.20;99.90;;;;;;5055168;28;20043;-64
2023/02/25 12:20:32;;;;;;;3.60;0.80;;;7.20;99.90;;;;;;5037451;28;20031;-66
2023/02/25 12:23:17;;;;;;;3.45;0.98;;;7.00;99.90;;;;;;5018709;28;20418;-65
2023/02/25 12:26:05;;;;;;;2.72;0.95;;;6.80;99.90;;;;;;5042186;28;20040;-66
2023/02/25 12:28:44;;;;;;;3.45;0.77;;;6.80;99.90;;;;;;5044429;28;20041;-65
2023/02/25 12:31:39;;;;;;;0.63;0.52;;;6.80;99.90;;;;;;5020231;28;20043;-65
2023/02/25 12:34:07;;;;;;;14.75;1.77;;;6.90;99.90;;;;;;5048962;28;20025;-66
2023/02/25 12:36:58;;;;;;;5.65;1.52;;;7.00;99.90;;;;;;5051532;28;20032;-65
2023/02/25 12:39:46;;;;;;;0.60;0.60;;;6.90;99.90;;;;;;5049503;28;20080;-66
2023/02/25 12:42:23;;;;;;;5.25;0.93;;;6.70;99.90;;;;;;5050240;28;20358;-65
2023/02/25 12:45:28;;;;;;;0.65;0.50;;;6.40;99.90;;;;;;5050732;28;20099;-65
2023/02/25 12:47:56;;;;;;;8.10;0.50;;;6.20;99.90;;;;;;4947266;28;20373;-65
2023/02/25 12:50:33;;;;;;;6.63;0.70;;;6.40;99.90;;;;;;4945697;28;20032;-65
2023/02/25 12:53:18;;;;;;;;;;;6.60;99.90;;;;;;4945139;28;20028;-65
2023/02/25 12:56:13;;;;;;;0.65;0.35;;;6.70;99.90;;;;;;4945645;28;19912;-65
2023/02/25 12:58:46;;;;;;;4.25;0.95;;;6.60;99.90;;;;;;4947733;28;20119;-64
2023/02/25 13:01:29;;;;;;;3.03;0.85;;;6.80;99.90;;;;;;4927411;28;20024;-64
2023/02/25 13:04:06;;;;;;;2.67;0.85;;;6.80;99.90;;;;;;4943964;28;20163;-66
2023/02/25 13:06:42;;;;;;;1.20;0.50;;;6.80;99.90;;;;;;4941826;28;20090;-65
2023/02/25 13:09:30;;;;;;;5.78;1.40;;;6.70;99.90;;;;;;4942029;28;20035;-64
2023/02/25 13:12:14;;;;;;;1.83;1.25;;;6.80;99.90;;;;;;4942691;28;20132;-65
2023/02/25 13:15:06;;;;;;;0.98;0.35;;;7.00;99.90;;;;;;4940934;28;20031;-64
2023/02/25 13:17:34;;;;;;;1.88;0.43;;;6.90;99.90;;;;;;4943042;28;20028;-65
2023/02/25 13:20:35;;;;;;;1.33;0.45;;;6.80;99.90;;;;;;4942229;28;20039;-64